Nemo, South Dakota
Current Conditions -  °F | °C
As of 6:58 AM on Sunday 21 Dec 2014 (Local Time) from KRCA Reporting Station
Clear Clear  
Wind Chill:   Ceiling: Unl
Heat Index:   Visibility: 10mi
Dew Point: -6°   Wind: 3mph
Humidity: 67%   Direction: 250°WSW
Pressure: 29.53"   Gusts: NA
Location:  44.19°N, 103.51°W
Report Text: KRCA 211358Z AUTO 25003KT 10SM CLR 00/M06 A2953 RMK AO2 SLP023 T10051059 $
Loading
Personal Weather Stations






























Interactive Weather Map New forecast layout! Learn more

10-Day Weather Forecast

Advertisements
Track Severe Weather on mobile